This is the latest recevied weather packets stored in our database for station/object ON8GE-13. If no packets are shown the sender has not sent any weather packets the latest 10 day(s).
| Time | Temp. | Humidity | Pressure | Rain* | Wind** | Luminosity | Snow |
|---|---|---|---|---|---|---|---|
| 1777171258 | 4.44° C | 77% | 1024.9 hPa | 0 mm | - | 0 W/m² | - |
| 1777168260 | 3.89° C | 80% | 1024.9 hPa | 0 mm | - | 0 W/m² | - |
| 1777162260 | 6.11° C | 65% | 1024.5 hPa | 0 mm | - | 0 W/m² | - |
| 1777161662 | 6.11° C | 64% | 1024.5 hPa | 0 mm | - | 0 W/m² | - |
| 1777161064 | 6.67° C | 64% | 1024.5 hPa | 0 mm | - | 0 W/m² | - |
| 1777158665 | 6.67° C | 62% | 1024.3 hPa | 0 mm | - | 0 W/m² | - |
| 1777158067 | 7.22° C | 62% | 1024.2 hPa | 0 mm | - | 0 W/m² | - |
| 1777155666 | 7.78° C | 59% | 1023.9 hPa | 0 mm | - | 0 W/m² | - |
| 1777153874 | 7.78° C | 59% | 1023.7 hPa | 0 mm | - | 0 W/m² | - |
| 1777152072 | 8.33° C | 55% | 1023.6 hPa | 0 mm | - | 0 W/m² | - |
| 1777147880 | 9.44° C | 47% | 1023.1 hPa | 0 mm | - | 0 W/m² | - |
| 1777144868 | 11.11° C | 43% | 1022.5 hPa | 0 mm | - | 0 W/m² | - |
| 1777141263 | 13.89° C | 39% | 1021.8 hPa | 0 mm | - | 20 W/m² | - |
| 1777140065 | 15° C | 39% | 1021.6 hPa | 0 mm | - | 28 W/m² | - |
| 1777134061 | 16.67° C | 35% | 1021.1 hPa | 0 mm | - | 194 W/m² | - |
| 1777133459 | 16.67° C | 33% | 1021.1 hPa | 0 mm | - | 92 W/m² | - |
| 1777132263 | 17.78° C | 33% | 1020.9 hPa | 0 mm | - | 354 W/m² | - |
| 1777119661 | 16.67° C | 39% | 1021.5 hPa | 0 mm | - | 732 W/m² | - |
| 1777115459 | 14.44° C | 51% | 1022 hPa | 0 mm | - | 740 W/m² | - |
| 1777114859 | 15° C | 57% | 1022 hPa | 0 mm | - | 734 W/m² | - |
| 1777114260 | 14.44° C | 58% | 1022.1 hPa | 0 mm | - | 728 W/m² | - |
| 1777107058 | 8.89° C | 92% | 1022.6 hPa | 0 mm | - | 572 W/m² | - |
| 1777104662 | 5.56° C | 10% | 1022.7 hPa | 0 mm | - | - | - |
| 1777097460 | 3.33° C | 10% | 1022.8 hPa | 0 mm | - | - | - |
| 1777093258 | 2.78° C | 10% | 1022.3 hPa | 0 mm | - | - | - |
* Rain latest hour (hover to see other rain measurements)
** Current wind speed in m/s (hover to see current wind gust speed)